sensor_id;sensor_type;location;lat;lon;timestamp;temperature;humidity
19363;DHT22;9817;50.80926400;5.16316200;2023-11-21T00:01:01;11.00;99.90
19363;DHT22;9817;50.80926400;5.16316200;2023-11-21T00:03:29;10.90;99.90
19363;DHT22;9817;50.80926400;5.16316200;2023-11-21T00:05:55;10.80;99.90
19363;DHT22;9817;50.80926400;5.16316200;2023-11-21T00:08:20;11.00;99.90
19363;DHT22;9817;50.80926400;5.16316200;2023-11-21T00:10:46;11.00;99.90
19363;DHT22;9817;50.80926400;5.16316200;2023-11-21T00:13:12;11.10;99.90
19363;DHT22;9817;50.80926400;5.16316200;2023-11-21T00:15:38;11.10;99.90
19363;DHT22;9817;50.80926400;5.16316200;2023-11-21T00:18:03;11.10;99.90
19363;DHT22;9817;50.80926400;5.16316200;2023-11-21T00:20:29;11.10;99.90
19363;DHT22;9817;50.80926400;5.16316200;2023-11-21T00:22:54;10.90;99.90
19363;DHT22;9817;50.80926400;5.16316200;2023-11-21T00:25:20;11.00;99.90
19363;DHT22;9817;50.80926400;5.16316200;2023-11-21T00:27:46;11.10;99.90
19363;DHT22;9817;50.80926400;5.16316200;2023-11-21T00:30:12;11.10;99.90
19363;DHT22;9817;50.80926400;5.16316200;2023-11-21T00:32:38;11.20;99.90
19363;DHT22;9817;50.80926400;5.16316200;2023-11-21T00:35:04;11.20;99.90
19363;DHT22;9817;50.80926400;5.16316200;2023-11-21T00:37:29;11.20;99.90
19363;DHT22;9817;50.80926400;5.16316200;2023-11-21T00:39:57;11.20;99.90
19363;DHT22;9817;50.80926400;5.16316200;2023-11-21T00:42:23;11.10;99.90
19363;DHT22;9817;50.80926400;5.16316200;2023-11-21T00:44:49;11.10;99.90
19363;DHT22;9817;50.80926400;5.16316200;2023-11-21T00:47:14;11.10;99.90
19363;DHT22;9817;50.80926400;5.16316200;2023-11-21T00:49:40;11.00;99.90
19363;DHT22;9817;50.80926400;5.16316200;2023-11-21T00:52:06;10.70;99.90
19363;DHT22;9817;50.80926400;5.16316200;2023-11-21T00:54:32;10.50;99.90
19363;DHT22;9817;50.80926400;5.16316200;2023-11-21T00:56:59;10.70;99.90
19363;DHT22;9817;50.80926400;5.16316200;2023-11-21T00:59:24;10.80;99.90
19363;DHT22;9817;50.80926400;5.16316200;2023-11-21T01:01:50;10.80;99.90
19363;DHT22;9817;50.80926400;5.16316200;2023-11-21T01:04:15;10.90;99.90
19363;DHT22;9817;50.80926400;5.16316200;2023-11-21T01:06:41;11.00;99.90
19363;DHT22;9817;50.80926400;5.16316200;2023-11-21T01:09:07;11.10;99.90
19363;DHT22;9817;50.80926400;5.16316200;2023-11-21T01:11:34;11.00;99.90
19363;DHT22;9817;50.80926400;5.16316200;2023-11-21T01:14:03;10.90;99.90
19363;DHT22;9817;50.80926400;5.16316200;2023-11-21T01:16:29;11.00;99.90
19363;DHT22;9817;50.80926400;5.16316200;2023-11-21T01:18:54;10.90;99.90
19363;DHT22;9817;50.80926400;5.16316200;2023-11-21T01:21:20;11.00;99.90
19363;DHT22;9817;50.80926400;5.16316200;2023-11-21T01:23:45;11.00;99.90
19363;DHT22;9817;50.80926400;5.16316200;2023-11-21T01:26:12;11.00;99.90
19363;DHT22;9817;50.80926400;5.16316200;2023-11-21T01:28:38;11.20;99.90
19363;DHT22;9817;50.80926400;5.16316200;2023-11-21T01:31:04;11.20;99.90
19363;DHT22;9817;50.80926400;5.16316200;2023-11-21T01:33:29;11.20;99.90
19363;DHT22;9817;50.80926400;5.16316200;2023-11-21T01:35:55;11.10;99.90
19363;DHT22;9817;50.80926400;5.16316200;2023-11-21T01:38:21;11.10;99.90
19363;DHT22;9817;50.80926400;5.16316200;2023-11-21T01:40:47;11.10;99.90
19363;DHT22;9817;50.80926400;5.16316200;2023-11-21T01:43:13;11.20;99.90
19363;DHT22;9817;50.80926400;5.16316200;2023-11-21T01:45:38;11.10;99.90
19363;DHT22;9817;50.80926400;5.16316200;2023-11-21T01:48:04;11.10;99.90
19363;DHT22;9817;50.80926400;5.16316200;2023-11-21T01:50:32;11.10;99.90
19363;DHT22;9817;50.80926400;5.16316200;2023-11-21T01:52:59;11.10;99.90
19363;DHT22;9817;50.80926400;5.16316200;2023-11-21T01:55:25;11.10;99.90
19363;DHT22;9817;50.80926400;5.16316200;2023-11-21T01:57:53;11.10;99.90
19363;DHT22;9817;50.80926400;5.16316200;2023-11-21T02:00:18;11.10;99.90
19363;DHT22;9817;50.80926400;5.16316200;2023-11-21T02:02:45;11.20;99.90
19363;DHT22;9817;50.80926400;5.16316200;2023-11-21T02:05:12;11.20;99.90
19363;DHT22;9817;50.80926400;5.16316200;2023-11-21T02:07:41;11.20;99.90
19363;DHT22;9817;50.80926400;5.16316200;2023-11-21T02:10:11;11.20;99.90
19363;DHT22;9817;50.80926400;5.16316200;2023-11-21T02:12:56;11.10;99.90
19363;DHT22;9817;50.80926400;5.16316200;2023-11-21T02:15:23;11.00;99.90
19363;DHT22;9817;50.80926400;5.16316200;2023-11-21T02:17:52;11.00;99.90
19363;DHT22;9817;50.80926400;5.16316200;2023-11-21T02:20:19;10.90;99.90
19363;DHT22;9817;50.80926400;5.16316200;2023-11-21T02:22:55;10.90;99.90
19363;DHT22;9817;50.80926400;5.16316200;2023-11-21T02:25:27;10.80;99.90
19363;DHT22;9817;50.80926400;5.16316200;2023-11-21T02:27:54;10.80;99.90
19363;DHT22;9817;50.80926400;5.16316200;2023-11-21T02:30:21;10.80;99.90
19363;DHT22;9817;50.80926400;5.16316200;2023-11-21T02:32:47;10.80;99.90
19363;DHT22;9817;50.80926400;5.16316200;2023-11-21T02:35:13;10.70;99.90
19363;DHT22;9817;50.80926400;5.16316200;2023-11-21T02:37:39;10.70;99.90
19363;DHT22;9817;50.80926400;5.16316200;2023-11-21T02:40:08;10.80;99.90
19363;DHT22;9817;50.80926400;5.16316200;2023-11-21T02:42:35;10.80;99.90
19363;DHT22;9817;50.80926400;5.16316200;2023-11-21T02:45:00;10.70;99.90
19363;DHT22;9817;50.80926400;5.16316200;2023-11-21T02:47:26;10.80;99.90
19363;DHT22;9817;50.80926400;5.16316200;2023-11-21T02:49:52;10.80;99.90
19363;DHT22;9817;50.80926400;5.16316200;2023-11-21T02:52:18;10.80;99.90
19363;DHT22;9817;50.80926400;5.16316200;2023-11-21T02:54:44;10.70;99.90
19363;DHT22;9817;50.80926400;5.16316200;2023-11-21T02:57:10;10.70;99.90
19363;DHT22;9817;50.80926400;5.16316200;2023-11-21T02:59:35;10.60;99.90
19363;DHT22;9817;50.80926400;5.16316200;2023-11-21T03:02:01;10.60;99.90
19363;DHT22;9817;50.80926400;5.16316200;2023-11-21T03:04:27;10.60;99.90
19363;DHT22;9817;50.80926400;5.16316200;2023-11-21T03:06:52;10.60;99.90
19363;DHT22;9817;50.80926400;5.16316200;2023-11-21T03:09:18;10.60;99.90
19363;DHT22;9817;50.80926400;5.16316200;2023-11-21T03:11:43;10.50;99.90
19363;DHT22;9817;50.80926400;5.16316200;2023-11-21T03:14:09;10.40;99.90
19363;DHT22;9817;50.80926400;5.16316200;2023-11-21T03:16:36;10.30;99.90
19363;DHT22;9817;50.80926400;5.16316200;2023-11-21T03:19:03;10.10;99.90
19363;DHT22;9817;50.80926400;5.16316200;2023-11-21T03:21:30;10.00;99.90
19363;DHT22;9817;50.80926400;5.16316200;2023-11-21T03:23:56;9.90;99.90
19363;DHT22;9817;50.80926400;5.16316200;2023-11-21T03:26:21;9.90;99.90
19363;DHT22;9817;50.80926400;5.16316200;2023-11-21T03:28:47;9.90;99.90
19363;DHT22;9817;50.80926400;5.16316200;2023-11-21T03:31:12;9.80;99.90
19363;DHT22;9817;50.80926400;5.16316200;2023-11-21T03:33:38;9.90;99.90
19363;DHT22;9817;50.80926400;5.16316200;2023-11-21T03:36:04;9.80;99.90
19363;DHT22;9817;50.80926400;5.16316200;2023-11-21T03:38:29;9.90;99.90
19363;DHT22;9817;50.80926400;5.16316200;2023-11-21T03:40:55;9.90;99.90
19363;DHT22;9817;50.80926400;5.16316200;2023-11-21T03:43:20;9.80;99.90
19363;DHT22;9817;50.80926400;5.16316200;2023-11-21T03:45:46;9.70;99.90
19363;DHT22;9817;50.80926400;5.16316200;2023-11-21T03:48:12;9.90;99.90
19363;DHT22;9817;50.80926400;5.16316200;2023-11-21T03:50:38;9.80;99.90
19363;DHT22;9817;50.80926400;5.16316200;2023-11-21T03:53:04;9.80;99.90
19363;DHT22;9817;50.80926400;5.16316200;2023-11-21T03:55:30;9.80;99.90
19363;DHT22;9817;50.80926400;5.16316200;2023-11-21T03:57:57;9.80;99.90
19363;DHT22;9817;50.80926400;5.16316200;2023-11-21T04:00:23;9.90;99.90
19363;DHT22;9817;50.80926400;5.16316200;2023-11-21T04:02:49;10.00;99.90
19363;DHT22;9817;50.80926400;5.16316200;2023-11-21T04:05:16;10.10;99.90
19363;DHT22;9817;50.80926400;5.16316200;2023-11-21T04:07:42;10.10;99.90
19363;DHT22;9817;50.80926400;5.16316200;2023-11-21T04:10:08;10.20;99.90
19363;DHT22;9817;50.80926400;5.16316200;2023-11-21T04:12:35;10.10;99.90
19363;DHT22;9817;50.80926400;5.16316200;2023-11-21T04:15:01;10.20;99.90
19363;DHT22;9817;50.80926400;5.16316200;2023-11-21T04:17:26;10.20;99.90
19363;DHT22;9817;50.80926400;5.16316200;2023-11-21T04:19:52;10.20;99.90
19363;DHT22;9817;50.80926400;5.16316200;2023-11-21T04:22:17;10.20;99.90
19363;DHT22;9817;50.80926400;5.16316200;2023-11-21T04:24:43;10.30;99.90
19363;DHT22;9817;50.80926400;5.16316200;2023-11-21T04:27:08;10.30;99.90
19363;DHT22;9817;50.80926400;5.16316200;2023-11-21T04:29:34;10.30;99.90
19363;DHT22;9817;50.80926400;5.16316200;2023-11-21T04:32:01;10.30;99.90
19363;DHT22;9817;50.80926400;5.16316200;2023-11-21T04:34:28;10.30;99.90
19363;DHT22;9817;50.80926400;5.16316200;2023-11-21T04:36:56;10.30;99.90
19363;DHT22;9817;50.80926400;5.16316200;2023-11-21T04:39:22;10.40;99.90
19363;DHT22;9817;50.80926400;5.16316200;2023-11-21T04:41:47;10.40;99.90
19363;DHT22;9817;50.80926400;5.16316200;2023-11-21T04:44:13;10.30;99.90
19363;DHT22;9817;50.80926400;5.16316200;2023-11-21T04:46:39;10.30;99.90
19363;DHT22;9817;50.80926400;5.16316200;2023-11-21T04:49:04;10.30;99.90
19363;DHT22;9817;50.80926400;5.16316200;2023-11-21T04:51:30;10.40;99.90
19363;DHT22;9817;50.80926400;5.16316200;2023-11-21T04:53:58;10.40;99.90
19363;DHT22;9817;50.80926400;5.16316200;2023-11-21T04:56:24;10.50;99.90
19363;DHT22;9817;50.80926400;5.16316200;2023-11-21T04:58:50;10.50;99.90
19363;DHT22;9817;50.80926400;5.16316200;2023-11-21T05:01:15;10.50;99.90
19363;DHT22;9817;50.80926400;5.16316200;2023-11-21T05:03:41;10.50;99.90
19363;DHT22;9817;50.80926400;5.16316200;2023-11-21T05:06:09;10.40;99.90
19363;DHT22;9817;50.80926400;5.16316200;2023-11-21T05:08:35;10.30;99.90
19363;DHT22;9817;50.80926400;5.16316200;2023-11-21T05:11:03;10.30;99.90
19363;DHT22;9817;50.80926400;5.16316200;2023-11-21T05:13:28;10.30;99.90
19363;DHT22;9817;50.80926400;5.16316200;2023-11-21T05:15:55;10.40;99.90
19363;DHT22;9817;50.80926400;5.16316200;2023-11-21T05:18:23;10.40;99.90
19363;DHT22;9817;50.80926400;5.16316200;2023-11-21T05:20:50;10.40;99.90
19363;DHT22;9817;50.80926400;5.16316200;2023-11-21T05:23:16;10.50;99.90
19363;DHT22;9817;50.80926400;5.16316200;2023-11-21T05:25:41;10.50;99.90
19363;DHT22;9817;50.80926400;5.16316200;2023-11-21T05:28:07;10.50;99.90
19363;DHT22;9817;50.80926400;5.16316200;2023-11-21T05:30:33;10.60;99.90
19363;DHT22;9817;50.80926400;5.16316200;2023-11-21T05:32:58;10.60;99.90
19363;DHT22;9817;50.80926400;5.16316200;2023-11-21T05:35:24;10.50;99.90
19363;DHT22;9817;50.80926400;5.16316200;2023-11-21T05:37:49;10.50;99.90
19363;DHT22;9817;50.80926400;5.16316200;2023-11-21T05:40:15;10.50;99.90
19363;DHT22;9817;50.80926400;5.16316200;2023-11-21T05:42:41;10.60;99.90
19363;DHT22;9817;50.80926400;5.16316200;2023-11-21T05:45:07;10.50;99.90
19363;DHT22;9817;50.80926400;5.16316200;2023-11-21T05:47:44;10.50;99.90
19363;DHT22;9817;50.80926400;5.16316200;2023-11-21T05:50:12;10.50;99.90
19363;DHT22;9817;50.80926400;5.16316200;2023-11-21T05:52:40;10.40;99.90
19363;DHT22;9817;50.80926400;5.16316200;2023-11-21T05:55:07;10.50;99.90
19363;DHT22;9817;50.80926400;5.16316200;2023-11-21T05:57:34;10.40;99.90
19363;DHT22;9817;50.80926400;5.16316200;2023-11-21T06:00:03;10.60;99.90
19363;DHT22;9817;50.80926400;5.16316200;2023-11-21T06:02:30;10.60;99.90
19363;DHT22;9817;50.80926400;5.16316200;2023-11-21T06:04:56;10.60;99.90
19363;DHT22;9817;50.80926400;5.16316200;2023-11-21T06:07:21;10.50;99.90
19363;DHT22;9817;50.80926400;5.16316200;2023-11-21T06:09:47;10.50;99.90
19363;DHT22;9817;50.80926400;5.16316200;2023-11-21T06:12:15;10.40;99.90
19363;DHT22;9817;50.80926400;5.16316200;2023-11-21T06:14:41;10.30;99.90
19363;DHT22;9817;50.80926400;5.16316200;2023-11-21T06:17:07;10.40;99.90
19363;DHT22;9817;50.80926400;5.16316200;2023-11-21T06:19:32;10.40;99.90
19363;DHT22;9817;50.80926400;5.16316200;2023-11-21T06:21:58;10.30;99.90
19363;DHT22;9817;50.80926400;5.16316200;2023-11-21T06:24:24;10.30;99.90
19363;DHT22;9817;50.80926400;5.16316200;2023-11-21T06:26:49;10.30;99.90
19363;DHT22;9817;50.80926400;5.16316200;2023-11-21T06:29:15;10.30;99.90
19363;DHT22;9817;50.80926400;5.16316200;2023-11-21T06:31:41;10.20;99.90
19363;DHT22;9817;50.80926400;5.16316200;2023-11-21T06:34:07;10.10;99.90
19363;DHT22;9817;50.80926400;5.16316200;2023-11-21T06:36:34;10.20;99.90
19363;DHT22;9817;50.80926400;5.16316200;2023-11-21T06:39:00;10.30;99.90
19363;DHT22;9817;50.80926400;5.16316200;2023-11-21T06:41:25;10.30;99.90
19363;DHT22;9817;50.80926400;5.16316200;2023-11-21T06:43:51;10.20;99.90
19363;DHT22;9817;50.80926400;5.16316200;2023-11-21T06:46:16;10.10;99.90
19363;DHT22;9817;50.80926400;5.16316200;2023-11-21T06:48:43;10.10;99.90
19363;DHT22;9817;50.80926400;5.16316200;2023-11-21T06:51:08;10.10;99.90
19363;DHT22;9817;50.80926400;5.16316200;2023-11-21T06:53:36;9.90;99.90
19363;DHT22;9817;50.80926400;5.16316200;2023-11-21T06:56:02;10.00;99.90
19363;DHT22;9817;50.80926400;5.16316200;2023-11-21T06:58:28;10.20;99.90
19363;DHT22;9817;50.80926400;5.16316200;2023-11-21T07:00:54;10.30;99.90
19363;DHT22;9817;50.80926400;5.16316200;2023-11-21T07:03:19;10.40;99.90
19363;DHT22;9817;50.80926400;5.16316200;2023-11-21T07:05:45;10.40;99.90
19363;DHT22;9817;50.80926400;5.16316200;2023-11-21T07:08:11;10.40;99.90
19363;DHT22;9817;50.80926400;5.16316200;2023-11-21T07:10:38;10.40;99.90
19363;DHT22;9817;50.80926400;5.16316200;2023-11-21T07:13:04;10.40;99.90
19363;DHT22;9817;50.80926400;5.16316200;2023-11-21T07:15:29;10.30;99.90
19363;DHT22;9817;50.80926400;5.16316200;2023-11-21T07:17:55;10.30;99.90
19363;DHT22;9817;50.80926400;5.16316200;2023-11-21T07:20:20;10.30;99.90
19363;DHT22;9817;50.80926400;5.16316200;2023-11-21T07:22:46;10.30;99.90
19363;DHT22;9817;50.80926400;5.16316200;2023-11-21T07:25:12;10.40;99.90
19363;DHT22;9817;50.80926400;5.16316200;2023-11-21T07:27:38;10.40;99.90
19363;DHT22;9817;50.80926400;5.16316200;2023-11-21T07:30:04;10.50;99.90
19363;DHT22;9817;50.80926400;5.16316200;2023-11-21T07:32:31;10.50;99.90
19363;DHT22;9817;50.80926400;5.16316200;2023-11-21T07:34:57;10.50;99.90
19363;DHT22;9817;50.80926400;5.16316200;2023-11-21T07:37:23;10.60;99.90
19363;DHT22;9817;50.80926400;5.16316200;2023-11-21T07:39:49;10.70;99.90
19363;DHT22;9817;50.80926400;5.16316200;2023-11-21T07:42:14;10.70;99.90
19363;DHT22;9817;50.80926400;5.16316200;2023-11-21T07:44:40;10.70;99.90
19363;DHT22;9817;50.80926400;5.16316200;2023-11-21T07:47:06;10.70;99.90
19363;DHT22;9817;50.80926400;5.16316200;2023-11-21T07:49:32;10.70;99.90
19363;DHT22;9817;50.80926400;5.16316200;2023-11-21T07:51:57;10.80;99.90
19363;DHT22;9817;50.80926400;5.16316200;2023-11-21T07:54:23;10.90;99.90
19363;DHT22;9817;50.80926400;5.16316200;2023-11-21T07:56:48;10.90;99.90
19363;DHT22;9817;50.80926400;5.16316200;2023-11-21T07:59:14;10.70;99.90
19363;DHT22;9817;50.80926400;5.16316200;2023-11-21T08:01:40;10.60;99.90
19363;DHT22;9817;50.80926400;5.16316200;2023-11-21T08:04:06;10.60;99.90
19363;DHT22;9817;50.80926400;5.16316200;2023-11-21T08:06:32;10.60;99.90
19363;DHT22;9817;50.80926400;5.16316200;2023-11-21T08:08:58;10.50;99.90
19363;DHT22;9817;50.80926400;5.16316200;2023-11-21T08:11:24;10.50;99.90
19363;DHT22;9817;50.80926400;5.16316200;2023-11-21T08:13:51;10.60;99.90
19363;DHT22;9817;50.80926400;5.16316200;2023-11-21T08:16:17;10.80;99.90
19363;DHT22;9817;50.80926400;5.16316200;2023-11-21T08:18:43;10.80;99.90
19363;DHT22;9817;50.80926400;5.16316200;2023-11-21T08:21:08;10.80;99.90
19363;DHT22;9817;50.80926400;5.16316200;2023-11-21T08:23:34;10.90;99.90
19363;DHT22;9817;50.80926400;5.16316200;2023-11-21T08:26:00;11.00;99.90
19363;DHT22;9817;50.80926400;5.16316200;2023-11-21T08:28:26;11.00;99.90
19363;DHT22;9817;50.80926400;5.16316200;2023-11-21T08:30:52;10.90;99.90
19363;DHT22;9817;50.80926400;5.16316200;2023-11-21T08:33:19;11.10;99.90
19363;DHT22;9817;50.80926400;5.16316200;2023-11-21T08:35:45;11.10;99.90
19363;DHT22;9817;50.80926400;5.16316200;2023-11-21T08:38:11;11.10;99.90
19363;DHT22;9817;50.80926400;5.16316200;2023-11-21T08:40:37;11.30;99.90
19363;DHT22;9817;50.80926400;5.16316200;2023-11-21T08:43:03;11.30;99.90
19363;DHT22;9817;50.80926400;5.16316200;2023-11-21T08:45:30;11.40;99.90
19363;DHT22;9817;50.80926400;5.16316200;2023-11-21T08:47:56;11.50;99.90
19363;DHT22;9817;50.80926400;5.16316200;2023-11-21T08:50:22;11.60;99.90
19363;DHT22;9817;50.80926400;5.16316200;2023-11-21T08:52:48;11.50;99.90
19363;DHT22;9817;50.80926400;5.16316200;2023-11-21T08:55:14;11.30;99.90
19363;DHT22;9817;50.80926400;5.16316200;2023-11-21T08:57:41;11.40;99.90
19363;DHT22;9817;50.80926400;5.16316200;2023-11-21T09:00:10;11.50;99.90
19363;DHT22;9817;50.80926400;5.16316200;2023-11-21T09:02:41;11.60;99.90
19363;DHT22;9817;50.80926400;5.16316200;2023-11-21T09:05:08;11.50;99.90
19363;DHT22;9817;50.80926400;5.16316200;2023-11-21T09:07:34;11.50;99.90
19363;DHT22;9817;50.80926400;5.16316200;2023-11-21T09:10:01;11.60;99.90
19363;DHT22;9817;50.80926400;5.16316200;2023-11-21T09:12:27;11.60;99.90
19363;DHT22;9817;50.80926400;5.16316200;2023-11-21T09:14:52;11.70;99.90
19363;DHT22;9817;50.80926400;5.16316200;2023-11-21T09:17:18;11.80;99.90
19363;DHT22;9817;50.80926400;5.16316200;2023-11-21T09:19:44;11.90;99.90
19363;DHT22;9817;50.80926400;5.16316200;2023-11-21T09:22:12;11.90;99.90
19363;DHT22;9817;50.80926400;5.16316200;2023-11-21T09:24:38;12.10;99.90
19363;DHT22;9817;50.80926400;5.16316200;2023-11-21T09:27:04;12.00;99.90
19363;DHT22;9817;50.80926400;5.16316200;2023-11-21T09:29:30;11.90;99.90
19363;DHT22;9817;50.80926400;5.16316200;2023-11-21T09:31:57;11.80;99.90
19363;DHT22;9817;50.80926400;5.16316200;2023-11-21T09:34:25;11.80;99.90
19363;DHT22;9817;50.80926400;5.16316200;2023-11-21T09:36:51;11.80;99.90
19363;DHT22;9817;50.80926400;5.16316200;2023-11-21T09:39:17;11.90;99.90
19363;DHT22;9817;50.80926400;5.16316200;2023-11-21T09:41:49;12.00;99.90
19363;DHT22;9817;50.80926400;5.16316200;2023-11-21T09:44:23;12.20;99.90
19363;DHT22;9817;50.80926400;5.16316200;2023-11-21T09:46:54;12.40;99.90
19363;DHT22;9817;50.80926400;5.16316200;2023-11-21T09:49:23;12.50;99.90
19363;DHT22;9817;50.80926400;5.16316200;2023-11-21T09:51:54;12.60;99.90
19363;DHT22;9817;50.80926400;5.16316200;2023-11-21T09:54:20;12.80;99.90
19363;DHT22;9817;50.80926400;5.16316200;2023-11-21T09:56:47;12.70;99.90
19363;DHT22;9817;50.80926400;5.16316200;2023-11-21T09:59:15;12.90;99.90
19363;DHT22;9817;50.80926400;5.16316200;2023-11-21T10:01:42;12.90;99.90
19363;DHT22;9817;50.80926400;5.16316200;2023-11-21T10:04:11;12.70;99.90
19363;DHT22;9817;50.80926400;5.16316200;2023-11-21T10:06:40;12.70;99.90
19363;DHT22;9817;50.80926400;5.16316200;2023-11-21T10:09:12;12.80;99.90
19363;DHT22;9817;50.80926400;5.16316200;2023-11-21T10:11:43;12.70;99.90
19363;DHT22;9817;50.80926400;5.16316200;2023-11-21T10:14:12;12.50;99.90
19363;DHT22;9817;50.80926400;5.16316200;2023-11-21T10:16:40;12.60;99.90
19363;DHT22;9817;50.80926400;5.16316200;2023-11-21T10:19:10;12.70;99.90
19363;DHT22;9817;50.80926400;5.16316200;2023-11-21T10:21:39;12.80;99.90
19363;DHT22;9817;50.80926400;5.16316200;2023-11-21T10:24:05;12.80;99.90
19363;DHT22;9817;50.80926400;5.16316200;2023-11-21T10:26:32;12.70;99.90
19363;DHT22;9817;50.80926400;5.16316200;2023-11-21T10:28:59;12.70;99.90
19363;DHT22;9817;50.80926400;5.16316200;2023-11-21T10:31:27;12.70;99.90
19363;DHT22;9817;50.80926400;5.16316200;2023-11-21T10:33:52;12.70;99.90
19363;DHT22;9817;50.80926400;5.16316200;2023-11-21T10:36:28;12.80;99.90
19363;DHT22;9817;50.80926400;5.16316200;2023-11-21T10:38:54;12.90;99.90
19363;DHT22;9817;50.80926400;5.16316200;2023-11-21T10:41:22;13.00;99.90
19363;DHT22;9817;50.80926400;5.16316200;2023-11-21T10:43:48;13.10;99.90
19363;DHT22;9817;50.80926400;5.16316200;2023-11-21T10:46:14;13.20;99.90
19363;DHT22;9817;50.80926400;5.16316200;2023-11-21T10:48:42;13.20;99.90
19363;DHT22;9817;50.80926400;5.16316200;2023-11-21T10:51:08;13.10;99.90
19363;DHT22;9817;50.80926400;5.16316200;2023-11-21T10:53:39;13.20;99.90
19363;DHT22;9817;50.80926400;5.16316200;2023-11-21T10:56:08;13.20;99.90
19363;DHT22;9817;50.80926400;5.16316200;2023-11-21T10:58:37;13.20;99.90
19363;DHT22;9817;50.80926400;5.16316200;2023-11-21T11:01:06;13.00;99.90
19363;DHT22;9817;50.80926400;5.16316200;2023-11-21T11:03:32;12.90;99.90
19363;DHT22;9817;50.80926400;5.16316200;2023-11-21T11:05:59;13.00;99.90
19363;DHT22;9817;50.80926400;5.16316200;2023-11-21T11:08:26;13.10;99.90
19363;DHT22;9817;50.80926400;5.16316200;2023-11-21T11:10:53;13.10;99.90
19363;DHT22;9817;50.80926400;5.16316200;2023-11-21T11:13:19;13.20;99.90
19363;DHT22;9817;50.80926400;5.16316200;2023-11-21T11:15:48;13.10;99.90
19363;DHT22;9817;50.80926400;5.16316200;2023-11-21T11:18:15;12.90;99.90
19363;DHT22;9817;50.80926400;5.16316200;2023-11-21T11:20:43;13.00;99.90
19363;DHT22;9817;50.80926400;5.16316200;2023-11-21T11:28:46;13.20;99.90
19363;DHT22;9817;50.80926400;5.16316200;2023-11-21T11:34:15;13.30;99.90
19363;DHT22;9817;50.80926400;5.16316200;2023-11-21T11:37:00;13.30;99.90
19363;DHT22;9817;50.80926400;5.16316200;2023-11-21T11:39:38;13.30;99.90
19363;DHT22;9817;50.80926400;5.16316200;2023-11-21T11:42:07;13.20;99.90
19363;DHT22;9817;50.80926400;5.16316200;2023-11-21T11:47:29;13.10;99.90
19363;DHT22;9817;50.80926400;5.16316200;2023-11-21T11:52:44;13.10;99.90
19363;DHT22;9817;50.80926400;5.16316200;2023-11-21T11:55:12;13.10;99.90
19363;DHT22;9817;50.80926400;5.16316200;2023-11-21T11:57:42;13.10;99.90
19363;DHT22;9817;50.80926400;5.16316200;2023-11-21T12:00:12;13.20;99.90
19363;DHT22;9817;50.80926400;5.16316200;2023-11-21T12:02:42;13.20;99.90
19363;DHT22;9817;50.80926400;5.16316200;2023-11-21T12:05:15;13.30;99.90
19363;DHT22;9817;50.80926400;5.16316200;2023-11-21T12:10:18;13.40;99.90
19363;DHT22;9817;50.80926400;5.16316200;2023-11-21T12:12:46;13.40;99.90
19363;DHT22;9817;50.80926400;5.16316200;2023-11-21T12:15:12;13.40;99.90
19363;DHT22;9817;50.80926400;5.16316200;2023-11-21T12:17:39;13.50;99.90
19363;DHT22;9817;50.80926400;5.16316200;2023-11-21T12:20:05;13.40;99.90
19363;DHT22;9817;50.80926400;5.16316200;2023-11-21T12:22:41;13.40;99.90
19363;DHT22;9817;50.80926400;5.16316200;2023-11-21T12:25:07;13.40;99.90
19363;DHT22;9817;50.80926400;5.16316200;2023-11-21T12:27:33;13.40;99.90
19363;DHT22;9817;50.80926400;5.16316200;2023-11-21T12:29:58;13.40;99.90
19363;DHT22;9817;50.80926400;5.16316200;2023-11-21T12:32:24;13.50;99.90
19363;DHT22;9817;50.80926400;5.16316200;2023-11-21T12:34:51;13.50;99.90
19363;DHT22;9817;50.80926400;5.16316200;2023-11-21T12:37:17;13.50;99.90
19363;DHT22;9817;50.80926400;5.16316200;2023-11-21T12:39:43;13.50;99.90
19363;DHT22;9817;50.80926400;5.16316200;2023-11-21T12:42:09;13.40;99.90
19363;DHT22;9817;50.80926400;5.16316200;2023-11-21T12:44:35;13.40;99.90
19363;DHT22;9817;50.80926400;5.16316200;2023-11-21T12:47:03;13.30;99.90
19363;DHT22;9817;50.80926400;5.16316200;2023-11-21T12:49:28;13.00;99.90
19363;DHT22;9817;50.80926400;5.16316200;2023-11-21T12:51:54;12.70;99.90
19363;DHT22;9817;50.80926400;5.16316200;2023-11-21T12:54:20;12.70;99.90
19363;DHT22;9817;50.80926400;5.16316200;2023-11-21T12:56:46;12.70;99.90
19363;DHT22;9817;50.80926400;5.16316200;2023-11-21T12:59:15;12.70;99.90
19363;DHT22;9817;50.80926400;5.16316200;2023-11-21T13:01:42;12.70;99.90
19363;DHT22;9817;50.80926400;5.16316200;2023-11-21T13:04:08;12.80;99.90
19363;DHT22;9817;50.80926400;5.16316200;2023-11-21T13:06:36;12.60;99.90
19363;DHT22;9817;50.80926400;5.16316200;2023-11-21T13:09:07;12.60;99.90
19363;DHT22;9817;50.80926400;5.16316200;2023-11-21T13:11:36;12.60;99.90
19363;DHT22;9817;50.80926400;5.16316200;2023-11-21T13:14:02;12.60;99.90
19363;DHT22;9817;50.80926400;5.16316200;2023-11-21T13:16:29;12.90;99.90
19363;DHT22;9817;50.80926400;5.16316200;2023-11-21T13:18:55;13.00;99.90
19363;DHT22;9817;50.80926400;5.16316200;2023-11-21T13:21:21;13.10;99.90
19363;DHT22;9817;50.80926400;5.16316200;2023-11-21T13:23:47;13.30;99.90
19363;DHT22;9817;50.80926400;5.16316200;2023-11-21T13:26:15;13.30;99.90
19363;DHT22;9817;50.80926400;5.16316200;2023-11-21T13:28:41;13.20;99.90
19363;DHT22;9817;50.80926400;5.16316200;2023-11-21T13:31:11;13.20;99.90
19363;DHT22;9817;50.80926400;5.16316200;2023-11-21T13:33:48;13.10;99.90
19363;DHT22;9817;50.80926400;5.16316200;2023-11-21T13:36:25;13.20;99.90
19363;DHT22;9817;50.80926400;5.16316200;2023-11-21T13:38:51;13.20;99.90
19363;DHT22;9817;50.80926400;5.16316200;2023-11-21T13:41:18;13.20;99.90
19363;DHT22;9817;50.80926400;5.16316200;2023-11-21T13:43:44;13.20;99.90
19363;DHT22;9817;50.80926400;5.16316200;2023-11-21T13:46:19;13.00;99.90
19363;DHT22;9817;50.80926400;5.16316200;2023-11-21T13:48:48;13.10;99.90